sensor_id;sensor_type;location;lat;lon;timestamp;P1;durP1;ratioP1;P2;durP2;ratioP2
33108;SDS011;19481;51.118;6.940;2023-07-30T00:03:48;2.15;;;1.40;;
33108;SDS011;19481;51.118;6.940;2023-07-30T00:08:51;2.05;;;1.65;;
33108;SDS011;19481;51.118;6.940;2023-07-30T00:13:52;3.03;;;1.77;;
33108;SDS011;19481;51.118;6.940;2023-07-30T00:18:54;1.80;;;1.30;;
33108;SDS011;19481;51.118;6.940;2023-07-30T00:23:58;4.13;;;1.67;;
33108;SDS011;19481;51.118;6.940;2023-07-30T00:28:59;2.83;;;1.60;;
33108;SDS011;19481;51.118;6.940;2023-07-30T00:34:01;6.38;;;1.67;;
33108;SDS011;19481;51.118;6.940;2023-07-30T00:39:04;1.90;;;1.35;;
33108;SDS011;19481;51.118;6.940;2023-07-30T00:44:05;4.13;;;1.55;;
33108;SDS011;19481;51.118;6.940;2023-07-30T00:49:07;1.52;;;1.30;;
33108;SDS011;19481;51.118;6.940;2023-07-30T00:54:10;4.15;;;1.73;;
33108;SDS011;19481;51.118;6.940;2023-07-30T00:59:12;6.25;;;1.95;;
33108;SDS011;19481;51.118;6.940;2023-07-30T01:04:14;5.25;;;1.50;;
33108;SDS011;19481;51.118;6.940;2023-07-30T01:09:18;3.15;;;1.60;;
33108;SDS011;19481;51.118;6.940;2023-07-30T01:14:20;3.25;;;1.50;;
33108;SDS011;19481;51.118;6.940;2023-07-30T01:19:22;6.22;;;1.42;;
33108;SDS011;19481;51.118;6.940;2023-07-30T01:24:25;1.30;;;1.20;;
33108;SDS011;19481;51.118;6.940;2023-07-30T01:29:27;6.65;;;1.60;;
33108;SDS011;19481;51.118;6.940;2023-07-30T01:34:34;4.25;;;1.60;;
33108;SDS011;19481;51.118;6.940;2023-07-30T01:39:38;2.40;;;2.20;;
33108;SDS011;19481;51.118;6.940;2023-07-30T01:44:41;11.95;;;1.63;;
33108;SDS011;19481;51.118;6.940;2023-07-30T01:49:43;2.50;;;1.50;;
33108;SDS011;19481;51.118;6.940;2023-07-30T01:54:46;4.60;;;1.50;;
33108;SDS011;19481;51.118;6.940;2023-07-30T01:59:48;3.03;;;1.35;;
33108;SDS011;19481;51.118;6.940;2023-07-30T02:04:49;4.85;;;1.38;;
33108;SDS011;19481;51.118;6.940;2023-07-30T02:09:52;2.25;;;1.23;;
33108;SDS011;19481;51.118;6.940;2023-07-30T02:14:54;2.92;;;1.55;;
33108;SDS011;19481;51.118;6.940;2023-07-30T02:19:56;2.63;;;1.45;;
33108;SDS011;19481;51.118;6.940;2023-07-30T02:24:59;1.90;;;1.30;;
33108;SDS011;19481;51.118;6.940;2023-07-30T02:30:01;3.88;;;1.30;;
33108;SDS011;19481;51.118;6.940;2023-07-30T02:35:02;2.97;;;1.50;;
33108;SDS011;19481;51.118;6.940;2023-07-30T02:40:06;1.27;;;1.17;;
33108;SDS011;19481;51.118;6.940;2023-07-30T02:45:09;2.47;;;1.40;;
33108;SDS011;19481;51.118;6.940;2023-07-30T02:50:11;11.93;;;1.65;;
33108;SDS011;19481;51.118;6.940;2023-07-30T02:55:14;2.55;;;1.40;;
33108;SDS011;19481;51.118;6.940;2023-07-30T03:00:16;3.38;;;1.50;;
33108;SDS011;19481;51.118;6.940;2023-07-30T03:05:18;3.22;;;1.52;;
33108;SDS011;19481;51.118;6.940;2023-07-30T03:10:21;5.63;;;1.40;;
33108;SDS011;19481;51.118;6.940;2023-07-30T03:15:23;2.85;;;1.58;;
33108;SDS011;19481;51.118;6.940;2023-07-30T03:20:25;5.20;;;1.65;;
33108;SDS011;19481;51.118;6.940;2023-07-30T03:25:28;2.55;;;1.30;;
33108;SDS011;19481;51.118;6.940;2023-07-30T03:30:29;4.95;;;1.70;;
33108;SDS011;19481;51.118;6.940;2023-07-30T03:35:31;3.28;;;1.48;;
33108;SDS011;19481;51.118;6.940;2023-07-30T03:40:34;2.67;;;1.75;;
33108;SDS011;19481;51.118;6.940;2023-07-30T03:45:35;2.80;;;1.52;;
33108;SDS011;19481;51.118;6.940;2023-07-30T03:50:37;2.80;;;1.45;;
33108;SDS011;19481;51.118;6.940;2023-07-30T03:55:40;4.35;;;1.63;;
33108;SDS011;19481;51.118;6.940;2023-07-30T04:00:42;3.10;;;1.30;;
33108;SDS011;19481;51.118;6.940;2023-07-30T04:05:43;3.42;;;1.25;;
33108;SDS011;19481;51.118;6.940;2023-07-30T04:10:46;5.55;;;1.50;;
33108;SDS011;19481;51.118;6.940;2023-07-30T04:15:48;4.03;;;1.40;;
33108;SDS011;19481;51.118;6.940;2023-07-30T04:20:50;3.67;;;1.27;;
33108;SDS011;19481;51.118;6.940;2023-07-30T04:25:53;6.20;;;1.35;;
33108;SDS011;19481;51.118;6.940;2023-07-30T04:30:54;3.72;;;0.98;;
33108;SDS011;19481;51.118;6.940;2023-07-30T04:35:56;2.97;;;0.77;;
33108;SDS011;19481;51.118;6.940;2023-07-30T04:40:59;2.65;;;1.10;;
33108;SDS011;19481;51.118;6.940;2023-07-30T04:46:00;2.53;;;0.90;;
33108;SDS011;19481;51.118;6.940;2023-07-30T04:51:02;1.70;;;1.00;;
33108;SDS011;19481;51.118;6.940;2023-07-30T04:56:05;3.35;;;0.82;;
33108;SDS011;19481;51.118;6.940;2023-07-30T05:01:06;1.73;;;0.75;;
33108;SDS011;19481;51.118;6.940;2023-07-30T05:06:08;3.15;;;0.90;;
33108;SDS011;19481;51.118;6.940;2023-07-30T05:11:11;1.27;;;0.63;;
33108;SDS011;19481;51.118;6.940;2023-07-30T05:16:13;3.00;;;0.88;;
33108;SDS011;19481;51.118;6.940;2023-07-30T05:21:14;1.48;;;0.90;;
33108;SDS011;19481;51.118;6.940;2023-07-30T05:26:17;2.50;;;1.02;;
33108;SDS011;19481;51.118;6.940;2023-07-30T05:31:19;4.35;;;1.00;;
33108;SDS011;19481;51.118;6.940;2023-07-30T05:36:20;4.30;;;0.82;;
33108;SDS011;19481;51.118;6.940;2023-07-30T05:41:23;7.03;;;0.88;;
33108;SDS011;19481;51.118;6.940;2023-07-30T05:46:25;0.73;;;0.60;;
33108;SDS011;19481;51.118;6.940;2023-07-30T05:51:27;3.38;;;0.90;;
33108;SDS011;19481;51.118;6.940;2023-07-30T05:56:30;5.35;;;1.00;;
33108;SDS011;19481;51.118;6.940;2023-07-30T06:01:31;3.97;;;0.80;;
33108;SDS011;19481;51.118;6.940;2023-07-30T06:06:33;4.32;;;0.80;;
33108;SDS011;19481;51.118;6.940;2023-07-30T06:11:36;3.92;;;0.88;;
33108;SDS011;19481;51.118;6.940;2023-07-30T06:16:37;3.95;;;1.00;;
33108;SDS011;19481;51.118;6.940;2023-07-30T06:21:39;3.00;;;1.08;;
33108;SDS011;19481;51.118;6.940;2023-07-30T06:26:42;5.57;;;1.20;;
33108;SDS011;19481;51.118;6.940;2023-07-30T06:31:43;3.67;;;0.90;;
33108;SDS011;19481;51.118;6.940;2023-07-30T06:36:45;1.83;;;0.90;;
33108;SDS011;19481;51.118;6.940;2023-07-30T06:41:48;4.32;;;1.48;;
33108;SDS011;19481;51.118;6.940;2023-07-30T06:46:50;5.88;;;2.42;;
33108;SDS011;19481;51.118;6.940;2023-07-30T06:51:51;1.63;;;1.00;;
33108;SDS011;19481;51.118;6.940;2023-07-30T06:56:54;3.45;;;0.90;;
33108;SDS011;19481;51.118;6.940;2023-07-30T07:01:56;2.10;;;1.55;;
33108;SDS011;19481;51.118;6.940;2023-07-30T07:06:57;8.60;;;1.42;;
33108;SDS011;19481;51.118;6.940;2023-07-30T07:12:00;3.78;;;1.13;;
33108;SDS011;19481;51.118;6.940;2023-07-30T07:17:03;4.30;;;1.05;;
33108;SDS011;19481;51.118;6.940;2023-07-30T07:22:05;3.08;;;1.02;;
33108;SDS011;19481;51.118;6.940;2023-07-30T07:27:08;5.72;;;1.25;;
33108;SDS011;19481;51.118;6.940;2023-07-30T07:32:10;4.28;;;1.15;;
33108;SDS011;19481;51.118;6.940;2023-07-30T07:37:11;3.22;;;0.93;;
33108;SDS011;19481;51.118;6.940;2023-07-30T07:42:16;4.78;;;1.30;;
33108;SDS011;19481;51.118;6.940;2023-07-30T07:47:18;6.10;;;1.33;;
33108;SDS011;19481;51.118;6.940;2023-07-30T07:52:19;4.28;;;1.33;;
33108;SDS011;19481;51.118;6.940;2023-07-30T07:57:22;5.00;;;1.50;;
33108;SDS011;19481;51.118;6.940;2023-07-30T08:02:24;7.35;;;1.30;;
33108;SDS011;19481;51.118;6.940;2023-07-30T08:07:25;3.35;;;1.10;;
33108;SDS011;19481;51.118;6.940;2023-07-30T08:12:30;1.98;;;1.00;;
33108;SDS011;19481;51.118;6.940;2023-07-30T08:17:32;8.50;;;1.80;;
33108;SDS011;19481;51.118;6.940;2023-07-30T08:22:34;3.85;;;1.50;;
33108;SDS011;19481;51.118;6.940;2023-07-30T08:27:37;3.78;;;1.33;;
33108;SDS011;19481;51.118;6.940;2023-07-30T08:32:38;7.05;;;1.23;;
33108;SDS011;19481;51.118;6.940;2023-07-30T08:37:41;2.08;;;1.20;;
33108;SDS011;19481;51.118;6.940;2023-07-30T08:42:44;5.15;;;1.20;;
33108;SDS011;19481;51.118;6.940;2023-07-30T08:47:46;4.05;;;1.70;;
33108;SDS011;19481;51.118;6.940;2023-07-30T08:52:48;3.92;;;1.35;;
33108;SDS011;19481;51.118;6.940;2023-07-30T08:57:52;8.75;;;1.60;;
33108;SDS011;19481;51.118;6.940;2023-07-30T09:02:56;6.55;;;1.55;;
33108;SDS011;19481;51.118;6.940;2023-07-30T09:08:00;5.32;;;1.40;;
33108;SDS011;19481;51.118;6.940;2023-07-30T09:13:03;4.10;;;1.02;;
33108;SDS011;19481;51.118;6.940;2023-07-30T09:18:05;3.58;;;1.02;;
33108;SDS011;19481;51.118;6.940;2023-07-30T09:23:08;3.72;;;1.10;;
33108;SDS011;19481;51.118;6.940;2023-07-30T09:28:12;5.75;;;1.30;;
33108;SDS011;19481;51.118;6.940;2023-07-30T09:33:14;2.65;;;1.17;;
33108;SDS011;19481;51.118;6.940;2023-07-30T09:38:20;2.17;;;1.25;;
33108;SDS011;19481;51.118;6.940;2023-07-30T09:43:23;4.07;;;1.27;;
33108;SDS011;19481;51.118;6.940;2023-07-30T09:48:30;6.05;;;1.30;;
33108;SDS011;19481;51.118;6.940;2023-07-30T09:53:32;3.40;;;1.40;;
33108;SDS011;19481;51.118;6.940;2023-07-30T09:58:37;4.72;;;1.02;;
33108;SDS011;19481;51.118;6.940;2023-07-30T10:03:39;4.65;;;1.00;;
33108;SDS011;19481;51.118;6.940;2023-07-30T10:08:41;6.40;;;1.58;;
33108;SDS011;19481;51.118;6.940;2023-07-30T10:13:45;10.60;;;0.95;;
33108;SDS011;19481;51.118;6.940;2023-07-30T10:18:47;6.40;;;2.15;;
33108;SDS011;19481;51.118;6.940;2023-07-30T10:24:01;1.83;;;0.93;;
33108;SDS011;19481;51.118;6.940;2023-07-30T10:29:17;1.60;;;0.80;;
33108;SDS011;19481;51.118;6.940;2023-07-30T10:34:19;4.13;;;0.98;;
33108;SDS011;19481;51.118;6.940;2023-07-30T10:39:25;2.65;;;0.80;;
33108;SDS011;19481;51.118;6.940;2023-07-30T10:44:30;3.97;;;0.75;;
33108;SDS011;19481;51.118;6.940;2023-07-30T10:49:35;6.30;;;1.02;;
33108;SDS011;19481;51.118;6.940;2023-07-30T10:54:37;2.92;;;0.95;;
33108;SDS011;19481;51.118;6.940;2023-07-30T10:59:40;2.92;;;1.17;;
33108;SDS011;19481;51.118;6.940;2023-07-30T11:04:43;4.35;;;1.02;;
33108;SDS011;19481;51.118;6.940;2023-07-30T11:09:44;3.03;;;1.17;;
33108;SDS011;19481;51.118;6.940;2023-07-30T11:14:47;2.88;;;0.77;;
33108;SDS011;19481;51.118;6.940;2023-07-30T11:19:49;7.32;;;0.63;;
33108;SDS011;19481;51.118;6.940;2023-07-30T11:24:50;2.42;;;0.82;;
33108;SDS011;19481;51.118;6.940;2023-07-30T11:29:56;2.50;;;0.70;;
33108;SDS011;19481;51.118;6.940;2023-07-30T11:34:58;4.18;;;0.85;;
33108;SDS011;19481;51.118;6.940;2023-07-30T11:40:00;3.83;;;0.63;;
33108;SDS011;19481;51.118;6.940;2023-07-30T11:45:19;3.25;;;0.80;;
33108;SDS011;19481;51.118;6.940;2023-07-30T11:50:23;3.03;;;0.63;;
33108;SDS011;19481;51.118;6.940;2023-07-30T11:55:25;3.42;;;1.00;;
33108;SDS011;19481;51.118;6.940;2023-07-30T12:00:40;3.22;;;0.75;;
33108;SDS011;19481;51.118;6.940;2023-07-30T12:05:42;5.45;;;0.90;;
33108;SDS011;19481;51.118;6.940;2023-07-30T12:10:44;1.88;;;0.75;;
33108;SDS011;19481;51.118;6.940;2023-07-30T12:15:51;3.20;;;0.93;;
33108;SDS011;19481;51.118;6.940;2023-07-30T12:20:53;7.93;;;1.35;;
33108;SDS011;19481;51.118;6.940;2023-07-30T12:25:57;3.70;;;0.70;;
33108;SDS011;19481;51.118;6.940;2023-07-30T12:31:00;6.53;;;0.90;;
33108;SDS011;19481;51.118;6.940;2023-07-30T12:36:02;1.45;;;0.60;;
33108;SDS011;19481;51.118;6.940;2023-07-30T12:41:04;1.55;;;1.05;;
33108;SDS011;19481;51.118;6.940;2023-07-30T12:46:07;5.70;;;0.77;;
33108;SDS011;19481;51.118;6.940;2023-07-30T12:51:08;3.28;;;0.85;;
33108;SDS011;19481;51.118;6.940;2023-07-30T12:56:10;3.90;;;1.13;;
33108;SDS011;19481;51.118;6.940;2023-07-30T13:01:13;3.50;;;0.90;;
33108;SDS011;19481;51.118;6.940;2023-07-30T13:06:15;1.17;;;0.70;;
33108;SDS011;19481;51.118;6.940;2023-07-30T13:11:16;2.67;;;0.68;;
33108;SDS011;19481;51.118;6.940;2023-07-30T13:16:19;4.15;;;0.95;;
33108;SDS011;19481;51.118;6.940;2023-07-30T13:21:21;5.53;;;1.02;;
33108;SDS011;19481;51.118;6.940;2023-07-30T13:26:23;3.97;;;1.20;;
33108;SDS011;19481;51.118;6.940;2023-07-30T13:31:26;7.28;;;0.70;;
33108;SDS011;19481;51.118;6.940;2023-07-30T13:36:27;1.98;;;0.70;;
33108;SDS011;19481;51.118;6.940;2023-07-30T13:41:29;4.20;;;0.90;;
33108;SDS011;19481;51.118;6.940;2023-07-30T13:46:32;3.45;;;0.90;;
33108;SDS011;19481;51.118;6.940;2023-07-30T13:51:33;6.82;;;1.00;;
33108;SDS011;19481;51.118;6.940;2023-07-30T13:56:35;1.55;;;0.73;;
33108;SDS011;19481;51.118;6.940;2023-07-30T14:01:40;2.45;;;0.77;;
33108;SDS011;19481;51.118;6.940;2023-07-30T14:06:41;1.40;;;0.80;;
33108;SDS011;19481;51.118;6.940;2023-07-30T14:11:44;3.55;;;0.82;;
33108;SDS011;19481;51.118;6.940;2023-07-30T14:16:48;1.60;;;0.77;;
33108;SDS011;19481;51.118;6.940;2023-07-30T14:21:49;3.28;;;1.00;;
33108;SDS011;19481;51.118;6.940;2023-07-30T14:26:51;3.85;;;1.10;;
33108;SDS011;19481;51.118;6.940;2023-07-30T14:31:54;1.45;;;0.73;;
33108;SDS011;19481;51.118;6.940;2023-07-30T14:36:55;3.55;;;0.75;;
33108;SDS011;19481;51.118;6.940;2023-07-30T14:41:57;1.15;;;0.88;;
33108;SDS011;19481;51.118;6.940;2023-07-30T14:47:00;2.50;;;0.70;;
33108;SDS011;19481;51.118;6.940;2023-07-30T14:52:05;1.95;;;0.70;;
33108;SDS011;19481;51.118;6.940;2023-07-30T14:57:07;3.30;;;0.52;;
33108;SDS011;19481;51.118;6.940;2023-07-30T15:02:10;5.10;;;0.77;;
33108;SDS011;19481;51.118;6.940;2023-07-30T15:07:13;4.70;;;1.00;;
33108;SDS011;19481;51.118;6.940;2023-07-30T15:12:15;1.20;;;0.70;;
33108;SDS011;19481;51.118;6.940;2023-07-30T15:17:17;2.78;;;0.80;;
33108;SDS011;19481;51.118;6.940;2023-07-30T15:22:19;4.00;;;0.90;;
33108;SDS011;19481;51.118;6.940;2023-07-30T15:27:21;2.17;;;0.70;;
33108;SDS011;19481;51.118;6.940;2023-07-30T15:32:24;2.45;;;1.05;;
33108;SDS011;19481;51.118;6.940;2023-07-30T15:37:26;3.15;;;0.75;;
33108;SDS011;19481;51.118;6.940;2023-07-30T15:42:28;6.93;;;0.80;;
33108;SDS011;19481;51.118;6.940;2023-07-30T15:47:31;2.40;;;1.13;;
33108;SDS011;19481;51.118;6.940;2023-07-30T15:52:32;3.75;;;1.10;;
33108;SDS011;19481;51.118;6.940;2023-07-30T15:57:34;9.43;;;0.95;;
33108;SDS011;19481;51.118;6.940;2023-07-30T16:02:37;3.25;;;1.00;;
33108;SDS011;19481;51.118;6.940;2023-07-30T16:07:39;1.60;;;0.70;;
33108;SDS011;19481;51.118;6.940;2023-07-30T16:12:41;5.78;;;1.02;;
33108;SDS011;19481;51.118;6.940;2023-07-30T16:17:44;2.75;;;1.00;;
33108;SDS011;19481;51.118;6.940;2023-07-30T16:22:45;4.80;;;0.80;;
33108;SDS011;19481;51.118;6.940;2023-07-30T16:27:47;5.03;;;0.85;;
33108;SDS011;19481;51.118;6.940;2023-07-30T16:32:50;7.40;;;1.20;;
33108;SDS011;19481;51.118;6.940;2023-07-30T16:37:51;1.75;;;0.80;;
33108;SDS011;19481;51.118;6.940;2023-07-30T16:42:53;4.03;;;1.00;;
33108;SDS011;19481;51.118;6.940;2023-07-30T16:47:56;3.08;;;0.95;;
33108;SDS011;19481;51.118;6.940;2023-07-30T16:52:58;3.45;;;1.45;;
33108;SDS011;19481;51.118;6.940;2023-07-30T16:58:00;5.47;;;1.20;;
33108;SDS011;19481;51.118;6.940;2023-07-30T17:03:04;3.10;;;1.00;;
33108;SDS011;19481;51.118;6.940;2023-07-30T17:08:07;1.77;;;0.90;;
33108;SDS011;19481;51.118;6.940;2023-07-30T17:13:11;2.17;;;1.05;;
33108;SDS011;19481;51.118;6.940;2023-07-30T17:18:14;0.93;;;0.70;;
33108;SDS011;19481;51.118;6.940;2023-07-30T17:23:16;6.63;;;0.90;;
33108;SDS011;19481;51.118;6.940;2023-07-30T17:28:17;2.75;;;0.90;;
33108;SDS011;19481;51.118;6.940;2023-07-30T17:33:21;6.20;;;0.90;;
33108;SDS011;19481;51.118;6.940;2023-07-30T17:38:22;2.42;;;0.88;;
33108;SDS011;19481;51.118;6.940;2023-07-30T17:43:24;5.22;;;0.93;;
33108;SDS011;19481;51.118;6.940;2023-07-30T17:48:28;3.13;;;0.90;;
33108;SDS011;19481;51.118;6.940;2023-07-30T17:53:29;3.20;;;1.00;;
33108;SDS011;19481;51.118;6.940;2023-07-30T17:58:31;6.75;;;1.52;;
33108;SDS011;19481;51.118;6.940;2023-07-30T18:03:34;6.00;;;0.98;;
33108;SDS011;19481;51.118;6.940;2023-07-30T18:08:36;3.05;;;1.00;;
33108;SDS011;19481;51.118;6.940;2023-07-30T18:13:38;4.13;;;1.17;;
33108;SDS011;19481;51.118;6.940;2023-07-30T18:18:41;4.55;;;1.40;;
33108;SDS011;19481;51.118;6.940;2023-07-30T18:23:42;4.57;;;1.05;;
33108;SDS011;19481;51.118;6.940;2023-07-30T18:28:44;3.15;;;1.17;;
33108;SDS011;19481;51.118;6.940;2023-07-30T18:33:47;6.38;;;3.00;;
33108;SDS011;19481;51.118;6.940;2023-07-30T18:38:49;7.93;;;1.52;;
33108;SDS011;19481;51.118;6.940;2023-07-30T18:43:50;2.22;;;1.67;;
33108;SDS011;19481;51.118;6.940;2023-07-30T18:48:53;6.40;;;1.30;;
33108;SDS011;19481;51.118;6.940;2023-07-30T18:53:55;6.20;;;1.55;;
33108;SDS011;19481;51.118;6.940;2023-07-30T18:58:57;3.17;;;1.30;;
33108;SDS011;19481;51.118;6.940;2023-07-30T19:04:00;3.65;;;1.00;;
33108;SDS011;19481;51.118;6.940;2023-07-30T19:09:02;2.85;;;1.13;;
33108;SDS011;19481;51.118;6.940;2023-07-30T19:14:04;3.35;;;1.20;;
33108;SDS011;19481;51.118;6.940;2023-07-30T19:19:06;1.85;;;1.10;;
33108;SDS011;19481;51.118;6.940;2023-07-30T19:24:09;5.28;;;1.40;;
33108;SDS011;19481;51.118;6.940;2023-07-30T19:29:11;4.53;;;1.52;;
33108;SDS011;19481;51.118;6.940;2023-07-30T19:34:14;3.17;;;1.25;;
33108;SDS011;19481;51.118;6.940;2023-07-30T19:39:15;3.95;;;1.33;;
33108;SDS011;19481;51.118;6.940;2023-07-30T19:44:17;5.32;;;2.17;;
33108;SDS011;19481;51.118;6.940;2023-07-30T19:49:20;2.95;;;1.80;;
33108;SDS011;19481;51.118;6.940;2023-07-30T19:54:23;4.53;;;1.50;;
33108;SDS011;19481;51.118;6.940;2023-07-30T19:59:24;5.28;;;1.70;;
33108;SDS011;19481;51.118;6.940;2023-07-30T20:04:27;2.42;;;1.42;;
33108;SDS011;19481;51.118;6.940;2023-07-30T20:09:29;7.65;;;1.70;;
33108;SDS011;19481;51.118;6.940;2023-07-30T20:14:31;1.95;;;1.75;;
33108;SDS011;19481;51.118;6.940;2023-07-30T20:19:34;5.22;;;1.65;;
33108;SDS011;19481;51.118;6.940;2023-07-30T20:24:35;5.60;;;1.40;;
33108;SDS011;19481;51.118;6.940;2023-07-30T20:29:37;2.40;;;1.50;;
33108;SDS011;19481;51.118;6.940;2023-07-30T20:34:40;3.35;;;1.50;;
33108;SDS011;19481;51.118;6.940;2023-07-30T20:39:41;1.52;;;1.30;;
33108;SDS011;19481;51.118;6.940;2023-07-30T20:44:43;2.17;;;1.33;;
33108;SDS011;19481;51.118;6.940;2023-07-30T20:49:46;3.47;;;1.65;;
33108;SDS011;19481;51.118;6.940;2023-07-30T20:54:47;1.90;;;1.17;;
33108;SDS011;19481;51.118;6.940;2023-07-30T20:59:49;3.38;;;1.75;;
33108;SDS011;19481;51.118;6.940;2023-07-30T21:04:52;2.60;;;1.58;;
33108;SDS011;19481;51.118;6.940;2023-07-30T21:09:54;3.83;;;1.58;;
33108;SDS011;19481;51.118;6.940;2023-07-30T21:14:56;3.28;;;1.50;;
33108;SDS011;19481;51.118;6.940;2023-07-30T21:19:59;4.85;;;1.63;;
33108;SDS011;19481;51.118;6.940;2023-07-30T21:25:00;3.47;;;1.75;;
33108;SDS011;19481;51.118;6.940;2023-07-30T21:30:02;4.00;;;1.65;;
33108;SDS011;19481;51.118;6.940;2023-07-30T21:35:06;5.05;;;1.63;;
33108;SDS011;19481;51.118;6.940;2023-07-30T21:40:08;4.65;;;1.60;;
33108;SDS011;19481;51.118;6.940;2023-07-30T21:45:10;6.55;;;1.60;;
33108;SDS011;19481;51.118;6.940;2023-07-30T21:50:13;3.17;;;1.65;;
33108;SDS011;19481;51.118;6.940;2023-07-30T21:55:15;7.63;;;1.98;;
33108;SDS011;19481;51.118;6.940;2023-07-30T22:00:17;4.07;;;1.77;;
33108;SDS011;19481;51.118;6.940;2023-07-30T22:05:19;2.50;;;1.42;;
33108;SDS011;19481;51.118;6.940;2023-07-30T22:10:21;6.72;;;1.30;;
33108;SDS011;19481;51.118;6.940;2023-07-30T22:15:23;9.13;;;1.83;;
33108;SDS011;19481;51.118;6.940;2023-07-30T22:20:26;2.65;;;1.60;;
33108;SDS011;19481;51.118;6.940;2023-07-30T22:25:28;5.78;;;2.13;;
33108;SDS011;19481;51.118;6.940;2023-07-30T22:30:29;4.70;;;1.67;;
33108;SDS011;19481;51.118;6.940;2023-07-30T22:35:32;2.05;;;1.70;;
33108;SDS011;19481;51.118;6.940;2023-07-30T22:40:34;3.42;;;1.33;;
33108;SDS011;19481;51.118;6.940;2023-07-30T22:45:35;5.53;;;1.33;;
33108;SDS011;19481;51.118;6.940;2023-07-30T22:50:38;1.73;;;1.63;;
33108;SDS011;19481;51.118;6.940;2023-07-30T22:55:40;6.25;;;1.73;;
33108;SDS011;19481;51.118;6.940;2023-07-30T23:00:42;2.13;;;1.45;;
33108;SDS011;19481;51.118;6.940;2023-07-30T23:05:45;3.75;;;1.50;;
33108;SDS011;19481;51.118;6.940;2023-07-30T23:10:47;4.85;;;1.58;;
33108;SDS011;19481;51.118;6.940;2023-07-30T23:15:49;3.50;;;1.50;;
33108;SDS011;19481;51.118;6.940;2023-07-30T23:20:52;2.38;;;1.58;;
33108;SDS011;19481;51.118;6.940;2023-07-30T23:25:54;9.63;;;1.45;;
33108;SDS011;19481;51.118;6.940;2023-07-30T23:30:56;2.97;;;1.80;;
33108;SDS011;19481;51.118;6.940;2023-07-30T23:35:59;5.18;;;1.95;;
33108;SDS011;19481;51.118;6.940;2023-07-30T23:41:00;6.90;;;1.63;;
33108;SDS011;19481;51.118;6.940;2023-07-30T23:46:02;4.55;;;1.90;;
33108;SDS011;19481;51.118;6.940;2023-07-30T23:51:05;4.35;;;1.58;;
33108;SDS011;19481;51.118;6.940;2023-07-30T23:56:07;6.85;;;1.75;;
